sensor_id;sensor_type;location;lat;lon;timestamp;pressure;altitude;pressure_sealevel;temperature;humidity
75604;BME280;64187;51.010;13.792;2024-02-23T00:04:02;97616.56;;;11.63;76.37
75604;BME280;64187;51.010;13.792;2024-02-23T00:09:01;97619.59;;;11.71;75.75
75604;BME280;64187;51.010;13.792;2024-02-23T00:14:00;97628.88;;;11.87;74.52
75604;BME280;64187;51.010;13.792;2024-02-23T00:19:00;97622.66;;;11.87;74.69
75604;BME280;64187;51.010;13.792;2024-02-23T00:23:58;97623.78;;;11.94;73.50
75604;BME280;64187;51.010;13.792;2024-02-23T00:28:57;97623.97;;;12.15;72.85
75604;BME280;64187;51.010;13.792;2024-02-23T00:33:56;97630.34;;;12.19;72.44
75604;BME280;64187;51.010;13.792;2024-02-23T00:38:55;97645.34;;;12.25;72.89
75604;BME280;64187;51.010;13.792;2024-02-23T00:43:54;97637.69;;;12.10;72.65
75604;BME280;64187;51.010;13.792;2024-02-23T00:48:53;97628.91;;;12.13;71.17
75604;BME280;64187;51.010;13.792;2024-02-23T00:53:53;97647.72;;;12.10;69.54
75604;BME280;64187;51.010;13.792;2024-02-23T00:58:52;97628.91;;;12.13;66.86
75604;BME280;64187;51.010;13.792;2024-02-23T01:03:51;97606.59;;;12.07;67.22
75604;BME280;64187;51.010;13.792;2024-02-23T01:08:50;97619.00;;;12.17;65.94
75604;BME280;64187;51.010;13.792;2024-02-23T01:13:49;97627.31;;;12.12;66.24
75604;BME280;64187;51.010;13.792;2024-02-23T01:18:48;97629.72;;;12.05;66.67
75604;BME280;64187;51.010;13.792;2024-02-23T01:23:46;97672.16;;;12.18;65.09
75604;BME280;64187;51.010;13.792;2024-02-23T01:28:46;97697.03;;;12.29;64.72
75604;BME280;64187;51.010;13.792;2024-02-23T01:33:44;97697.69;;;12.35;62.70
75604;BME280;64187;51.010;13.792;2024-02-23T01:38:43;97724.34;;;12.41;63.03
75604;BME280;64187;51.010;13.792;2024-02-23T01:43:42;97725.63;;;12.44;63.68
75604;BME280;64187;51.010;13.792;2024-02-23T01:48:41;97717.31;;;12.49;62.66
75604;BME280;64187;51.010;13.792;2024-02-23T01:53:40;97727.56;;;12.52;61.31
75604;BME280;64187;51.010;13.792;2024-02-23T01:58:40;97741.72;;;12.32;62.19
75604;BME280;64187;51.010;13.792;2024-02-23T02:03:39;97745.06;;;12.28;63.25
75604;BME280;64187;51.010;13.792;2024-02-23T02:08:38;97766.78;;;12.37;61.80
75604;BME280;64187;51.010;13.792;2024-02-23T02:13:37;97776.00;;;12.10;62.71
75604;BME280;64187;51.010;13.792;2024-02-23T02:18:36;97790.84;;;12.21;62.81
75604;BME280;64187;51.010;13.792;2024-02-23T02:23:35;97809.47;;;12.14;62.46
75604;BME280;64187;51.010;13.792;2024-02-23T02:28:36;97812.38;;;12.18;60.94
75604;BME280;64187;51.010;13.792;2024-02-23T02:33:34;97811.63;;;11.95;61.53
75604;BME280;64187;51.010;13.792;2024-02-23T02:38:33;97823.31;;;11.95;61.73
75604;BME280;64187;51.010;13.792;2024-02-23T02:43:32;97821.19;;;11.92;61.40
75604;BME280;64187;51.010;13.792;2024-02-23T02:48:31;97830.81;;;11.98;59.42
75604;BME280;64187;51.010;13.792;2024-02-23T02:53:30;97848.16;;;11.66;60.27
75604;BME280;64187;51.010;13.792;2024-02-23T02:58:30;97863.22;;;11.81;59.77
75604;BME280;64187;51.010;13.792;2024-02-23T03:03:28;97886.47;;;11.73;60.72
75604;BME280;64187;51.010;13.792;2024-02-23T03:08:28;97893.34;;;11.79;59.57
75604;BME280;64187;51.010;13.792;2024-02-23T03:13:27;97899.38;;;11.76;57.96
75604;BME280;64187;51.010;13.792;2024-02-23T03:18:26;97913.00;;;11.62;58.50
75604;BME280;64187;51.010;13.792;2024-02-23T03:23:26;97918.38;;;11.54;58.71
75604;BME280;64187;51.010;13.792;2024-02-23T03:28:25;97932.28;;;11.38;58.34
75604;BME280;64187;51.010;13.792;2024-02-23T03:33:24;97943.59;;;11.40;57.22
75604;BME280;64187;51.010;13.792;2024-02-23T03:38:23;97954.13;;;11.42;57.23
75604;BME280;64187;51.010;13.792;2024-02-23T03:43:22;97965.72;;;11.20;56.64
75604;BME280;64187;51.010;13.792;2024-02-23T03:48:21;97982.28;;;11.18;57.25
75604;BME280;64187;51.010;13.792;2024-02-23T03:53:20;98005.03;;;11.17;57.82
75604;BME280;64187;51.010;13.792;2024-02-23T03:58:19;98034.63;;;11.14;56.84
75604;BME280;64187;51.010;13.792;2024-02-23T04:03:17;98040.03;;;11.00;55.89
75604;BME280;64187;51.010;13.792;2024-02-23T04:08:16;98075.94;;;10.92;54.48
75604;BME280;64187;51.010;13.792;2024-02-23T04:13:16;98086.25;;;10.76;56.09
75604;BME280;64187;51.010;13.792;2024-02-23T04:18:16;98101.94;;;10.60;53.97
75604;BME280;64187;51.010;13.792;2024-02-23T04:23:15;98112.34;;;10.53;52.34
75604;BME280;64187;51.010;13.792;2024-02-23T04:28:14;98112.56;;;10.56;52.60
75604;BME280;64187;51.010;13.792;2024-02-23T04:33:13;98115.09;;;10.34;52.48
75604;BME280;64187;51.010;13.792;2024-02-23T04:38:12;98111.59;;;10.33;50.58
75604;BME280;64187;51.010;13.792;2024-02-23T04:43:11;98125.53;;;10.22;50.84
75604;BME280;64187;51.010;13.792;2024-02-23T04:48:10;98133.50;;;9.94;51.16
75604;BME280;64187;51.010;13.792;2024-02-23T04:53:09;98148.03;;;9.98;51.29
75604;BME280;64187;51.010;13.792;2024-02-23T04:58:08;98161.81;;;9.78;52.62
75604;BME280;64187;51.010;13.792;2024-02-23T05:03:07;98172.03;;;9.81;52.86
75604;BME280;64187;51.010;13.792;2024-02-23T05:08:10;98206.16;;;9.77;53.66
75604;BME280;64187;51.010;13.792;2024-02-23T05:13:09;98204.41;;;9.86;55.17
75604;BME280;64187;51.010;13.792;2024-02-23T05:18:08;98207.34;;;9.89;55.03
75604;BME280;64187;51.010;13.792;2024-02-23T05:23:07;98218.41;;;9.69;56.05
75604;BME280;64187;51.010;13.792;2024-02-23T05:28:06;98213.53;;;9.90;56.09
75604;BME280;64187;51.010;13.792;2024-02-23T05:33:05;98226.06;;;11.88;89.93
75604;BME280;64187;51.010;13.792;2024-02-23T05:38:04;98213.53;;;13.32;66.15
75604;BME280;64187;51.010;13.792;2024-02-23T05:43:04;98214.38;;;12.96;60.76
75604;BME280;64187;51.010;13.792;2024-02-23T05:48:04;98227.81;;;13.24;59.30
75604;BME280;64187;51.010;13.792;2024-02-23T05:53:03;98242.03;;;12.98;55.20
75604;BME280;64187;51.010;13.792;2024-02-23T05:58:03;98256.13;;;11.45;49.69
75604;BME280;64187;51.010;13.792;2024-02-23T06:03:03;98254.81;;;10.57;49.16
75604;BME280;64187;51.010;13.792;2024-02-23T06:08:02;98262.28;;;10.28;50.95
75604;BME280;64187;51.010;13.792;2024-02-23T06:13:02;98286.78;;;9.88;50.33
75604;BME280;64187;51.010;13.792;2024-02-23T06:18:04;98286.97;;;9.73;51.55
75604;BME280;64187;51.010;13.792;2024-02-23T06:23:05;98292.50;;;9.87;51.69
75604;BME280;64187;51.010;13.792;2024-02-23T06:28:04;98301.78;;;9.76;50.52
75604;BME280;64187;51.010;13.792;2024-02-23T06:33:05;98316.63;;;9.54;51.87
75604;BME280;64187;51.010;13.792;2024-02-23T06:38:04;98314.94;;;9.58;52.00
75604;BME280;64187;51.010;13.792;2024-02-23T06:43:04;98326.88;;;9.52;51.52
75604;BME280;64187;51.010;13.792;2024-02-23T06:48:03;98322.75;;;9.60;52.63
75604;BME280;64187;51.010;13.792;2024-02-23T06:53:02;98328.13;;;9.65;53.22
75604;BME280;64187;51.010;13.792;2024-02-23T06:58:02;98328.13;;;9.65;53.81
75604;BME280;64187;51.010;13.792;2024-02-23T07:03:03;98326.50;;;9.64;52.69
75604;BME280;64187;51.010;13.792;2024-02-23T07:08:03;98316.50;;;9.64;53.72
75604;BME280;64187;51.010;13.792;2024-02-23T07:13:02;98316.28;;;9.85;53.62
75604;BME280;64187;51.010;13.792;2024-02-23T07:18:05;98329.53;;;9.57;54.18
75604;BME280;64187;51.010;13.792;2024-02-23T07:23:04;98343.56;;;9.59;53.35
75604;BME280;64187;51.010;13.792;2024-02-23T07:28:04;98374.13;;;9.55;54.44
75604;BME280;64187;51.010;13.792;2024-02-23T07:33:03;98370.47;;;9.40;54.41
75604;BME280;64187;51.010;13.792;2024-02-23T07:38:02;98387.19;;;9.42;54.67
75604;BME280;64187;51.010;13.792;2024-02-23T07:43:01;98386.19;;;9.33;54.22
75604;BME280;64187;51.010;13.792;2024-02-23T07:48:00;98395.75;;;9.55;54.33
75604;BME280;64187;51.010;13.792;2024-02-23T07:52:59;98413.13;;;9.73;53.90
75604;BME280;64187;51.010;13.792;2024-02-23T07:57:58;98410.88;;;9.85;52.97
75604;BME280;64187;51.010;13.792;2024-02-23T08:03:00;98448.53;;;9.37;52.21
75604;BME280;64187;51.010;13.792;2024-02-23T08:08:00;98450.19;;;9.33;51.90
75604;BME280;64187;51.010;13.792;2024-02-23T08:12:59;98454.34;;;9.54;53.13
75604;BME280;64187;51.010;13.792;2024-02-23T08:17:58;98452.63;;;9.29;52.39
75604;BME280;64187;51.010;13.792;2024-02-23T08:22:57;98446.84;;;9.46;51.76
75604;BME280;64187;51.010;13.792;2024-02-23T08:27:56;98435.03;;;9.37;52.30
75604;BME280;64187;51.010;13.792;2024-02-23T08:32:55;98441.69;;;9.49;51.46
75604;BME280;64187;51.010;13.792;2024-02-23T08:37:55;98437.75;;;9.37;51.02
75604;BME280;64187;51.010;13.792;2024-02-23T08:42:54;98428.97;;;9.11;52.18
75604;BME280;64187;51.010;13.792;2024-02-23T08:47:52;98441.13;;;9.13;53.80
75604;BME280;64187;51.010;13.792;2024-02-23T08:52:51;98431.97;;;9.48;52.85
75604;BME280;64187;51.010;13.792;2024-02-23T08:57:50;98440.81;;;9.59;51.35
75604;BME280;64187;51.010;13.792;2024-02-23T09:02:50;98450.97;;;9.73;52.47
75604;BME280;64187;51.010;13.792;2024-02-23T09:07:50;98465.84;;;10.04;51.95
75604;BME280;64187;51.010;13.792;2024-02-23T09:12:49;98464.22;;;10.32;52.36
75604;BME280;64187;51.010;13.792;2024-02-23T09:17:48;98477.03;;;10.75;50.60
75604;BME280;64187;51.010;13.792;2024-02-23T09:22:47;98488.63;;;10.99;50.24
75604;BME280;64187;51.010;13.792;2024-02-23T09:27:46;98487.66;;;10.42;51.60
75604;BME280;64187;51.010;13.792;2024-02-23T09:32:45;98501.56;;;10.60;50.27
75604;BME280;64187;51.010;13.792;2024-02-23T09:37:44;98495.31;;;10.35;50.46
75604;BME280;64187;51.010;13.792;2024-02-23T09:42:49;98496.94;;;10.36;51.48
75604;BME280;64187;51.010;13.792;2024-02-23T09:47:56;98499.63;;;10.36;50.57
75604;BME280;64187;51.010;13.792;2024-02-23T09:52:57;98489.13;;;10.59;49.95
75604;BME280;64187;51.010;13.792;2024-02-23T09:57:58;98480.03;;;11.16;49.87
75604;BME280;64187;51.010;13.792;2024-02-23T10:02:58;98472.84;;;11.45;45.98
75604;BME280;64187;51.010;13.792;2024-02-23T10:07:58;98471.78;;;11.46;46.08
75604;BME280;64187;51.010;13.792;2024-02-23T10:12:58;98487.00;;;11.41;46.79
75604;BME280;64187;51.010;13.792;2024-02-23T10:17:57;98504.53;;;11.82;47.05
75604;BME280;64187;51.010;13.792;2024-02-23T10:22:56;98510.00;;;11.63;46.60
75604;BME280;64187;51.010;13.792;2024-02-23T10:27:55;98513.38;;;11.12;47.28
75604;BME280;64187;51.010;13.792;2024-02-23T10:32:56;98511.22;;;11.14;46.80
75604;BME280;64187;51.010;13.792;2024-02-23T10:37:56;98533.31;;;11.21;46.54
75604;BME280;64187;51.010;13.792;2024-02-23T10:42:56;98537.97;;;11.58;46.12
75604;BME280;64187;51.010;13.792;2024-02-23T10:47:57;98535.56;;;11.38;45.72
75604;BME280;64187;51.010;13.792;2024-02-23T10:52:56;98534.06;;;11.27;45.04
75604;BME280;64187;51.010;13.792;2024-02-23T10:57:56;98558.81;;;10.96;45.76
75604;BME280;64187;51.010;13.792;2024-02-23T11:02:57;98563.25;;;11.11;45.13
75604;BME280;64187;51.010;13.792;2024-02-23T11:07:56;98584.44;;;11.04;44.49
75604;BME280;64187;51.010;13.792;2024-02-23T11:12:59;98567.88;;;11.05;45.49
75604;BME280;64187;51.010;13.792;2024-02-23T11:18:00;98567.47;;;10.93;44.42
75604;BME280;64187;51.010;13.792;2024-02-23T11:22:59;98564.44;;;10.99;44.62
75604;BME280;64187;51.010;13.792;2024-02-23T11:27:58;98580.44;;;11.20;44.41
75604;BME280;64187;51.010;13.792;2024-02-23T11:32:59;98590.19;;;11.21;43.02
75604;BME280;64187;51.010;13.792;2024-02-23T11:37:59;98581.81;;;11.41;41.58
75604;BME280;64187;51.010;13.792;2024-02-23T11:42:59;98565.72;;;11.69;42.94
75604;BME280;64187;51.010;13.792;2024-02-23T11:48:01;98566.00;;;11.49;41.56
75604;BME280;64187;51.010;13.792;2024-02-23T11:53:01;98563.69;;;10.94;43.60
75604;BME280;64187;51.010;13.792;2024-02-23T11:58:00;98574.34;;;11.52;44.34
75604;BME280;64187;51.010;13.792;2024-02-23T12:03:09;98564.56;;;11.75;43.98
75604;BME280;64187;51.010;13.792;2024-02-23T12:08:08;98558.56;;;11.78;42.69
75604;BME280;64187;51.010;13.792;2024-02-23T12:13:07;98564.69;;;11.65;43.92
75604;BME280;64187;51.010;13.792;2024-02-23T12:18:06;98570.00;;;11.32;43.66
75604;BME280;64187;51.010;13.792;2024-02-23T12:23:05;98573.56;;;11.09;44.84
75604;BME280;64187;51.010;13.792;2024-02-23T12:28:06;98574.88;;;11.35;42.99
75604;BME280;64187;51.010;13.792;2024-02-23T12:33:06;98556.50;;;11.70;42.50
75604;BME280;64187;51.010;13.792;2024-02-23T12:38:10;98554.16;;;11.63;40.98
75604;BME280;64187;51.010;13.792;2024-02-23T12:43:09;98549.75;;;11.49;41.28
75604;BME280;64187;51.010;13.792;2024-02-23T12:48:08;98541.28;;;11.55;41.53
75604;BME280;64187;51.010;13.792;2024-02-23T12:53:08;98539.78;;;11.82;41.08
75604;BME280;64187;51.010;13.792;2024-02-23T12:58:07;98540.00;;;11.48;41.79
75604;BME280;64187;51.010;13.792;2024-02-23T13:03:06;98537.53;;;11.70;41.46
75604;BME280;64187;51.010;13.792;2024-02-23T13:08:05;98555.63;;;11.94;41.22
75604;BME280;64187;51.010;13.792;2024-02-23T13:13:05;98548.38;;;11.89;42.36
75604;BME280;64187;51.010;13.792;2024-02-23T13:18:04;98553.34;;;11.82;41.19
75604;BME280;64187;51.010;13.792;2024-02-23T13:23:04;98538.50;;;11.98;41.92
75604;BME280;64187;51.010;13.792;2024-02-23T13:28:04;98541.56;;;11.92;41.34
75604;BME280;64187;51.010;13.792;2024-02-23T13:33:03;98537.88;;;11.82;42.19
75604;BME280;64187;51.010;13.792;2024-02-23T13:38:04;98533.28;;;12.02;42.81
75604;BME280;64187;51.010;13.792;2024-02-23T13:43:03;98532.97;;;12.22;42.60
75604;BME280;64187;51.010;13.792;2024-02-23T13:48:03;98536.84;;;12.16;44.00
75604;BME280;64187;51.010;13.792;2024-02-23T13:53:04;98535.69;;;11.84;45.09
75604;BME280;64187;51.010;13.792;2024-02-23T13:58:04;98538.69;;;12.02;44.34
75604;BME280;64187;51.010;13.792;2024-02-23T14:03:03;98549.88;;;12.14;45.19
75604;BME280;64187;51.010;13.792;2024-02-23T14:08:02;98549.63;;;11.78;45.24
75604;BME280;64187;51.010;13.792;2024-02-23T14:13:06;98551.69;;;11.24;45.19
75604;BME280;64187;51.010;13.792;2024-02-23T14:18:05;98549.31;;;11.60;44.95
75604;BME280;64187;51.010;13.792;2024-02-23T14:23:04;98562.97;;;11.31;44.42
75604;BME280;64187;51.010;13.792;2024-02-23T14:28:03;98567.03;;;11.72;44.36
75604;BME280;64187;51.010;13.792;2024-02-23T14:33:02;98566.28;;;10.80;45.46
75604;BME280;64187;51.010;13.792;2024-02-23T14:38:01;98564.84;;;11.12;44.93
75604;BME280;64187;51.010;13.792;2024-02-23T14:43:01;98565.59;;;11.17;45.83
75604;BME280;64187;51.010;13.792;2024-02-23T14:48:00;98564.91;;;11.50;45.81
75604;BME280;64187;51.010;13.792;2024-02-23T14:52:59;98560.81;;;11.33;45.33
75604;BME280;64187;51.010;13.792;2024-02-23T14:57:59;98558.22;;;10.75;46.92
75604;BME280;64187;51.010;13.792;2024-02-23T15:02:58;98560.66;;;11.01;47.74
75604;BME280;64187;51.010;13.792;2024-02-23T15:07:57;98570.91;;;11.04;47.98
75604;BME280;64187;51.010;13.792;2024-02-23T15:12:56;98558.81;;;10.96;48.03
75604;BME280;64187;51.010;13.792;2024-02-23T15:17:55;98534.50;;;10.91;47.84
75604;BME280;64187;51.010;13.792;2024-02-23T15:22:54;98543.25;;;10.83;48.84
75604;BME280;64187;51.010;13.792;2024-02-23T15:27:53;98560.50;;;10.63;48.77
75604;BME280;64187;51.010;13.792;2024-02-23T15:32:56;98578.34;;;10.64;49.12
75604;BME280;64187;51.010;13.792;2024-02-23T15:37:56;98574.69;;;10.78;48.29
75604;BME280;64187;51.010;13.792;2024-02-23T15:42:55;98560.06;;;10.50;49.86
75604;BME280;64187;51.010;13.792;2024-02-23T15:47:54;98547.66;;;10.49;49.86
75604;BME280;64187;51.010;13.792;2024-02-23T15:52:53;98538.72;;;10.49;50.16
75604;BME280;64187;51.010;13.792;2024-02-23T15:57:52;98535.94;;;10.25;50.75
75604;BME280;64187;51.010;13.792;2024-02-23T16:02:51;98527.19;;;10.38;50.06
75604;BME280;64187;51.010;13.792;2024-02-23T16:07:50;98539.78;;;10.19;50.89
75604;BME280;64187;51.010;13.792;2024-02-23T16:12:50;98574.50;;;10.06;51.14
75604;BME280;64187;51.010;13.792;2024-02-23T16:17:51;98581.59;;;9.97;50.93
75604;BME280;64187;51.010;13.792;2024-02-23T16:22:51;98608.09;;;9.90;51.53
75604;BME280;64187;51.010;13.792;2024-02-23T16:27:50;98630.53;;;9.90;52.73
75604;BME280;64187;51.010;13.792;2024-02-23T16:32:48;98640.34;;;9.76;52.60
75604;BME280;64187;51.010;13.792;2024-02-23T16:37:48;98649.81;;;9.74;53.16
75604;BME280;64187;51.010;13.792;2024-02-23T16:42:47;98648.22;;;9.67;54.12
75604;BME280;64187;51.010;13.792;2024-02-23T16:47:46;98634.19;;;9.65;53.36
75604;BME280;64187;51.010;13.792;2024-02-23T16:52:46;98643.91;;;9.66;54.85
75604;BME280;64187;51.010;13.792;2024-02-23T16:57:45;98650.94;;;10.56;79.52
75604;BME280;64187;51.010;13.792;2024-02-23T17:02:44;98632.72;;;10.33;55.17
75604;BME280;64187;51.010;13.792;2024-02-23T17:07:43;98635.03;;;9.56;56.01
75604;BME280;64187;51.010;13.792;2024-02-23T17:12:43;98626.63;;;9.67;57.56
75604;BME280;64187;51.010;13.792;2024-02-23T17:17:46;98625.25;;;9.70;55.96
75604;BME280;64187;51.010;13.792;2024-02-23T17:22:46;98623.97;;;9.57;56.40
75604;BME280;64187;51.010;13.792;2024-02-23T17:27:46;98622.72;;;9.34;57.67
75604;BME280;64187;51.010;13.792;2024-02-23T17:32:48;98626.25;;;9.30;57.51
75604;BME280;64187;51.010;13.792;2024-02-23T17:37:48;98626.59;;;9.02;59.56
75604;BME280;64187;51.010;13.792;2024-02-23T17:42:47;98636.88;;;8.90;59.81
75604;BME280;64187;51.010;13.792;2024-02-23T17:47:47;98629.03;;;8.94;60.73
75604;BME280;64187;51.010;13.792;2024-02-23T17:52:46;98614.88;;;9.38;59.74
75604;BME280;64187;51.010;13.792;2024-02-23T17:57:46;98636.28;;;9.03;60.35
75604;BME280;64187;51.010;13.792;2024-02-23T18:02:45;98618.78;;;8.96;60.90
75604;BME280;64187;51.010;13.792;2024-02-23T18:07:44;98615.00;;;8.87;60.04
75604;BME280;64187;51.010;13.792;2024-02-23T18:12:43;98613.13;;;8.97;62.01
75604;BME280;64187;51.010;13.792;2024-02-23T18:17:42;98606.91;;;8.87;62.06
75604;BME280;64187;51.010;13.792;2024-02-23T18:22:41;98613.38;;;8.91;62.91
75604;BME280;64187;51.010;13.792;2024-02-23T18:27:40;98632.03;;;8.36;63.26
75604;BME280;64187;51.010;13.792;2024-02-23T18:32:39;98627.19;;;8.48;63.80
75604;BME280;64187;51.010;13.792;2024-02-23T18:37:40;98615.06;;;8.56;63.78
75604;BME280;64187;51.010;13.792;2024-02-23T18:42:39;98615.56;;;8.78;63.07
75604;BME280;64187;51.010;13.792;2024-02-23T18:47:39;98611.28;;;8.57;62.85
75604;BME280;64187;51.010;13.792;2024-02-23T18:52:41;98608.88;;;8.50;63.84
75604;BME280;64187;51.010;13.792;2024-02-23T18:57:42;98611.00;;;8.58;63.21
75604;BME280;64187;51.010;13.792;2024-02-23T19:02:41;98636.63;;;8.51;64.59
75604;BME280;64187;51.010;13.792;2024-02-23T19:07:43;98643.91;;;8.55;64.04
75604;BME280;64187;51.010;13.792;2024-02-23T19:12:43;98654.44;;;8.41;63.36
75604;BME280;64187;51.010;13.792;2024-02-23T19:17:42;98643.91;;;8.55;62.06
75604;BME280;64187;51.010;13.792;2024-02-23T19:22:41;98649.84;;;8.73;61.95
75604;BME280;64187;51.010;13.792;2024-02-23T19:27:40;98631.22;;;8.66;61.63
75604;BME280;64187;51.010;13.792;2024-02-23T19:32:39;98626.91;;;8.75;60.16
75604;BME280;64187;51.010;13.792;2024-02-23T19:37:38;98627.44;;;8.57;60.19
75604;BME280;64187;51.010;13.792;2024-02-23T19:42:37;98643.09;;;8.39;61.36
75604;BME280;64187;51.010;13.792;2024-02-23T19:47:36;98652.56;;;8.62;62.31
75604;BME280;64187;51.010;13.792;2024-02-23T19:52:36;98670.09;;;8.55;61.73
75604;BME280;64187;51.010;13.792;2024-02-23T19:57:35;98672.72;;;8.24;62.00
75604;BME280;64187;51.010;13.792;2024-02-23T20:02:34;98669.00;;;8.51;61.21
75604;BME280;64187;51.010;13.792;2024-02-23T20:07:33;98658.44;;;8.34;61.08
75604;BME280;64187;51.010;13.792;2024-02-23T20:12:32;98650.34;;;8.24;60.01
75604;BME280;64187;51.010;13.792;2024-02-23T20:17:31;98643.91;;;8.35;59.75
75604;BME280;64187;51.010;13.792;2024-02-23T20:22:32;98639.56;;;8.29;60.78
75604;BME280;64187;51.010;13.792;2024-02-23T20:27:31;98617.22;;;8.59;59.87
75604;BME280;64187;51.010;13.792;2024-02-23T20:32:31;98585.63;;;8.39;60.26
75604;BME280;64187;51.010;13.792;2024-02-23T20:37:30;98604.53;;;8.24;62.02
75604;BME280;64187;51.010;13.792;2024-02-23T20:42:30;98605.31;;;8.24;61.36
75604;BME280;64187;51.010;13.792;2024-02-23T20:47:29;98618.25;;;8.07;63.33
75604;BME280;64187;51.010;13.792;2024-02-23T20:52:28;98629.03;;;8.02;63.01
75604;BME280;64187;51.010;13.792;2024-02-23T20:57:27;98614.44;;;7.92;62.72
75604;BME280;64187;51.010;13.792;2024-02-23T21:02:26;98621.22;;;7.95;61.98
75604;BME280;64187;51.010;13.792;2024-02-23T21:07:25;98636.88;;;8.18;60.65
75604;BME280;64187;51.010;13.792;2024-02-23T21:12:25;98660.84;;;8.15;61.25
75604;BME280;64187;51.010;13.792;2024-02-23T21:17:24;98675.41;;;8.14;61.30
75604;BME280;64187;51.010;13.792;2024-02-23T21:22:23;98671.88;;;7.98;61.30
75604;BME280;64187;51.010;13.792;2024-02-23T21:27:21;98668.31;;;7.92;61.62
75604;BME280;64187;51.010;13.792;2024-02-23T21:32:20;98663.44;;;7.79;64.87
75604;BME280;64187;51.010;13.792;2024-02-23T21:37:19;98657.47;;;7.67;65.30
75604;BME280;64187;51.010;13.792;2024-02-23T21:42:19;98647.88;;;8.07;62.92
75604;BME280;64187;51.010;13.792;2024-02-23T21:47:18;98619.34;;;8.06;61.53
75604;BME280;64187;51.010;13.792;2024-02-23T21:52:17;98628.75;;;7.93;60.39
75604;BME280;64187;51.010;13.792;2024-02-23T21:57:16;98620.94;;;8.27;59.65
75604;BME280;64187;51.010;13.792;2024-02-23T22:02:14;98612.31;;;8.05;61.17
75604;BME280;64187;51.010;13.792;2024-02-23T22:07:13;98620.41;;;8.05;60.86
75604;BME280;64187;51.010;13.792;2024-02-23T22:12:12;98630.13;;;8.21;60.71
75604;BME280;64187;51.010;13.792;2024-02-23T22:17:11;98627.44;;;8.21;61.20
75604;BME280;64187;51.010;13.792;2024-02-23T22:22:10;98634.16;;;8.18;60.09
75604;BME280;64187;51.010;13.792;2024-02-23T22:27:09;98629.53;;;7.78;62.43
75604;BME280;64187;51.010;13.792;2024-02-23T22:32:08;98620.38;;;7.89;62.64
75604;BME280;64187;51.010;13.792;2024-02-23T22:37:07;98618.75;;;7.83;62.31
75604;BME280;64187;51.010;13.792;2024-02-23T22:42:07;98603.41;;;7.89;63.27
75604;BME280;64187;51.010;13.792;2024-02-23T22:47:06;98610.16;;;7.96;61.82
75604;BME280;64187;51.010;13.792;2024-02-23T22:52:06;98614.22;;;8.09;60.95
75604;BME280;64187;51.010;13.792;2024-02-23T22:57:05;98611.50;;;7.94;61.42
75604;BME280;64187;51.010;13.792;2024-02-23T23:02:04;98617.41;;;7.81;62.72
75604;BME280;64187;51.010;13.792;2024-02-23T23:07:03;98620.59;;;7.72;63.98
75604;BME280;64187;51.010;13.792;2024-02-23T23:12:03;98625.81;;;8.15;63.79
75604;BME280;64187;51.010;13.792;2024-02-23T23:17:02;98633.59;;;8.01;64.86
75604;BME280;64187;51.010;13.792;2024-02-23T23:22:01;98634.81;;;7.58;65.68
75604;BME280;64187;51.010;13.792;2024-02-23T23:27:02;98642.09;;;7.52;65.18
75604;BME280;64187;51.010;13.792;2024-02-23T23:32:01;98639.75;;;7.81;63.68
75604;BME280;64187;51.010;13.792;2024-02-23T23:37:00;98638.59;;;7.51;64.58
75604;BME280;64187;51.010;13.792;2024-02-23T23:41:59;98636.16;;;7.50;65.53
75604;BME280;64187;51.010;13.792;2024-02-23T23:46:58;98641.00;;;7.48;66.20
75604;BME280;64187;51.010;13.792;2024-02-23T23:51:57;98635.84;;;7.41;65.95
75604;BME280;64187;51.010;13.792;2024-02-23T23:57:02;98628.41;;;7.69;66.07
